createdAt,value
2022-12-18T00:01:50.780Z,42.47
2022-12-18T00:04:24.410Z,36.15
2022-12-18T00:06:51.793Z,33.83
2022-12-18T00:09:21.411Z,37.47
2022-12-18T00:11:56.071Z,36.78
2022-12-18T00:14:23.376Z,33.15
2022-12-18T00:16:52.781Z,36.47
2022-12-18T00:19:20.008Z,31.35
2022-12-18T00:21:49.308Z,32.08
2022-12-18T00:24:16.498Z,37.50
2022-12-18T00:26:46.372Z,33.92
2022-12-18T00:29:15.262Z,31.70
2022-12-18T00:31:43.467Z,30.80
2022-12-18T00:34:14.155Z,33.85
2022-12-18T00:36:42.247Z,39.20
2022-12-18T00:39:11.044Z,33.63
2022-12-18T00:41:56.246Z,35.00
2022-12-18T00:44:24.932Z,29.27
2022-12-18T00:46:51.876Z,35.67
2022-12-18T00:49:20.561Z,33.70
2022-12-18T00:51:48.198Z,33.35
2022-12-18T00:54:18.514Z,32.53
2022-12-18T00:56:51.237Z,32.13
2022-12-18T00:59:20.883Z,33.63
2022-12-18T01:01:49.354Z,35.33
2022-12-18T01:04:16.730Z,32.55
2022-12-18T01:06:43.777Z,29.85
2022-12-18T01:09:11.939Z,29.33
2022-12-18T01:11:40.826Z,30.55
2022-12-18T01:16:35.211Z,30.83
2022-12-18T01:19:03.796Z,28.75
2022-12-18T01:21:32.382Z,33.50
2022-12-18T01:24:05.849Z,28.00
2022-12-18T01:26:35.066Z,28.27
2022-12-18T01:29:04.748Z,31.70
2022-12-18T01:31:33.349Z,33.13
2022-12-18T01:34:03.406Z,34.55
2022-12-18T01:36:32.815Z,30.80
2022-12-18T01:39:09.485Z,31.20
2022-12-18T01:41:57.606Z,26.58
2022-12-18T01:44:54.266Z,27.88
2022-12-18T01:47:26.958Z,34.08
2022-12-18T01:49:59.722Z,30.55
2022-12-18T01:52:29.238Z,31.10
2022-12-18T01:54:57.242Z,30.73
2022-12-18T01:57:28.077Z,31.63
2022-12-18T02:00:02.527Z,30.77
2022-12-18T02:02:30.488Z,32.58
2022-12-18T02:05:05.349Z,36.00
2022-12-18T02:07:43.699Z,33.58
2022-12-18T02:10:18.524Z,34.38
2022-12-18T02:12:57.495Z,31.90
2022-12-18T02:15:33.188Z,30.25
2022-12-18T02:18:06.588Z,27.83
2022-12-18T02:20:46.736Z,34.35
2022-12-18T02:23:25.436Z,31.77
2022-12-18T02:28:38.973Z,31.38
2022-12-18T02:31:13.378Z,36.17
2022-12-18T02:33:51.365Z,37.03
2022-12-18T02:36:21.017Z,33.28
2022-12-18T02:38:48.855Z,31.30
2022-12-18T02:41:18.904Z,34.58
2022-12-18T02:43:55.961Z,33.03
2022-12-18T02:46:35.127Z,39.30
2022-12-18T02:49:13.801Z,32.63
2022-12-18T02:51:51.676Z,31.20
2022-12-18T02:54:33.366Z,41.55
2022-12-18T02:57:11.528Z,35.33
2022-12-18T02:59:43.099Z,32.30
2022-12-18T03:02:20.670Z,38.65
2022-12-18T03:04:55.652Z,35.08
2022-12-18T03:07:39.023Z,30.75
2022-12-18T03:10:14.662Z,36.28
2022-12-18T03:12:48.658Z,34.15
2022-12-18T03:15:21.981Z,36.60
2022-12-18T03:17:53.615Z,30.63
2022-12-18T03:20:26.261Z,33.45
2022-12-18T03:23:00.840Z,38.95
2022-12-18T03:25:29.111Z,31.15
2022-12-18T03:28:03.211Z,35.22
2022-12-18T03:30:34.432Z,39.92
2022-12-18T03:33:09.996Z,35.55
2022-12-18T03:35:42.750Z,30.08
2022-12-18T03:38:12.169Z,32.88
2022-12-18T03:40:49.428Z,35.97
2022-12-18T03:43:24.952Z,30.75
2022-12-18T03:45:57.948Z,36.72
2022-12-18T03:48:31.236Z,28.88
2022-12-18T03:51:06.097Z,35.40
2022-12-18T03:53:39.948Z,38.30
2022-12-18T03:56:09.562Z,32.25
2022-12-18T03:58:43.476Z,33.85
2022-12-18T04:01:15.049Z,36.45
2022-12-18T04:03:44.989Z,41.13
2022-12-18T04:06:15.437Z,38.47
2022-12-18T04:08:48.344Z,36.35
2022-12-18T04:11:21.603Z,35.42
2022-12-18T04:13:59.048Z,33.20
2022-12-18T04:16:26.440Z,38.75
2022-12-18T04:18:54.882Z,30.50
2022-12-18T04:21:22.388Z,32.75
2022-12-18T04:23:49.699Z,40.85
2022-12-18T04:28:52.249Z,37.10
2022-12-18T04:31:21.957Z,39.72
2022-12-18T04:33:52.155Z,35.17
2022-12-18T04:36:22.079Z,34.40
2022-12-18T04:38:49.288Z,43.92
2022-12-18T04:41:17.716Z,40.95
2022-12-18T04:43:46.741Z,47.05
2022-12-18T04:46:13.929Z,40.15
2022-12-18T04:48:42.612Z,38.75
2022-12-18T04:51:13.880Z,39.25
2022-12-18T04:53:41.487Z,33.30
2022-12-18T04:56:10.724Z,32.72
2022-12-18T04:58:40.423Z,39.65
2022-12-18T05:01:09.723Z,38.95
2022-12-18T05:03:39.646Z,38.63
2022-12-18T05:06:10.411Z,39.70
2022-12-18T05:08:45.985Z,53.38
2022-12-18T05:11:16.670Z,48.80
2022-12-18T05:13:46.553Z,43.58
2022-12-18T05:16:14.101Z,40.22
2022-12-18T05:18:41.455Z,39.92
2022-12-18T05:21:12.774Z,32.88
2022-12-18T05:23:43.437Z,35.45
2022-12-18T05:26:20.444Z,35.95
2022-12-18T05:28:47.970Z,32.63
2022-12-18T05:31:16.889Z,34.92
2022-12-18T05:33:45.641Z,36.03
2022-12-18T05:38:44.910Z,39.28
2022-12-18T05:41:14.872Z,40.03
2022-12-18T05:43:48.073Z,40.90
2022-12-18T05:46:18.514Z,31.73
2022-12-18T05:48:49.226Z,36.22
2022-12-18T05:51:26.609Z,36.03
2022-12-18T05:53:54.325Z,33.38
2022-12-18T05:56:23.415Z,36.35
2022-12-18T05:58:53.801Z,41.63
2022-12-18T06:01:24.218Z,40.17
2022-12-18T06:03:51.684Z,40.63
2022-12-18T06:06:20.515Z,30.45
2022-12-18T06:08:50.286Z,33.42
2022-12-18T06:11:21.474Z,39.70
2022-12-18T06:13:58.261Z,37.47
2022-12-18T06:16:27.088Z,36.13
2022-12-18T06:18:54.432Z,38.37
2022-12-18T06:21:21.322Z,37.58
2022-12-18T06:23:49.868Z,30.70
2022-12-18T06:26:16.975Z,35.53
2022-12-18T06:28:44.215Z,33.75
2022-12-18T06:31:11.348Z,36.75
2022-12-18T06:33:39.713Z,39.47
2022-12-18T06:36:08.900Z,40.63
2022-12-18T06:38:38.121Z,40.00
2022-12-18T06:43:36.345Z,38.05
2022-12-18T06:46:04.766Z,39.83
2022-12-18T06:48:33.138Z,38.85
2022-12-18T06:51:02.294Z,36.80
2022-12-18T06:53:30.483Z,43.33
2022-12-18T06:56:05.181Z,44.47
2022-12-18T07:01:07.895Z,37.00
2022-12-18T07:03:38.945Z,39.72
2022-12-18T07:06:13.981Z,41.13
2022-12-18T07:08:46.196Z,47.50
2022-12-18T07:11:16.702Z,40.33
2022-12-18T07:13:46.226Z,44.22
2022-12-18T07:16:24.407Z,38.03
2022-12-18T07:18:56.494Z,42.47
2022-12-18T07:21:25.147Z,42.90
2022-12-18T07:23:52.573Z,43.53
2022-12-18T07:26:22.053Z,37.70
2022-12-18T07:29:05.260Z,35.67
2022-12-18T07:31:36.596Z,41.88
2022-12-18T07:34:04.061Z,37.70
2022-12-18T07:36:33.068Z,36.35
2022-12-18T07:39:00.023Z,44.40
2022-12-18T07:41:27.272Z,40.00
2022-12-18T07:43:56.284Z,35.92
2022-12-18T07:46:27.949Z,47.50
2022-12-18T07:48:54.821Z,39.20
2022-12-18T07:51:26.488Z,43.50
2022-12-18T07:53:56.508Z,47.33
2022-12-18T07:56:42.981Z,41.90
2022-12-18T07:59:12.930Z,44.50
2022-12-18T08:01:41.660Z,52.80
2022-12-18T08:04:10.058Z,45.63
2022-12-18T08:06:37.263Z,48.22
2022-12-18T08:09:04.221Z,42.55
2022-12-18T08:11:31.488Z,38.92
2022-12-18T08:14:01.522Z,44.67
2022-12-18T08:16:28.761Z,47.15
2022-12-18T08:18:57.610Z,41.63
2022-12-18T08:21:26.195Z,41.17
2022-12-18T08:23:57.008Z,55.83
2022-12-18T08:26:25.910Z,44.17
2022-12-18T08:28:57.580Z,39.20
2022-12-18T08:31:34.438Z,41.45
2022-12-18T08:34:03.171Z,46.20
2022-12-18T08:36:33.388Z,46.72
2022-12-18T08:39:00.698Z,40.60
2022-12-18T08:41:30.680Z,46.05
2022-12-18T08:44:16.895Z,48.13
2022-12-18T08:46:45.631Z,96.28
2022-12-18T08:49:14.457Z,87.13
2022-12-18T08:51:41.386Z,58.20
2022-12-18T08:54:10.296Z,43.90
2022-12-18T08:56:44.204Z,43.10
2022-12-18T08:59:17.294Z,38.55
2022-12-18T09:01:47.986Z,43.33
2022-12-18T09:06:49.311Z,39.38
2022-12-18T09:09:16.768Z,49.55
2022-12-18T09:11:45.331Z,48.33
2022-12-18T09:14:12.781Z,56.45
2022-12-18T09:16:39.729Z,60.67
2022-12-18T09:19:07.016Z,54.70
2022-12-18T09:21:37.156Z,48.45
2022-12-18T09:24:08.877Z,48.53
2022-12-18T09:26:36.724Z,46.88
2022-12-18T09:29:04.058Z,44.67
2022-12-18T09:31:34.240Z,42.88
2022-12-18T09:34:02.200Z,37.85
2022-12-18T09:36:29.236Z,45.03
2022-12-18T09:38:57.919Z,43.83
2022-12-18T09:41:40.188Z,46.35
2022-12-18T09:44:20.994Z,45.67
2022-12-18T09:47:00.689Z,46.05
2022-12-18T09:49:35.512Z,45.95
2022-12-18T09:52:12.421Z,49.08
2022-12-18T09:54:47.335Z,44.40
2022-12-18T09:57:22.723Z,52.33
2022-12-18T09:59:55.982Z,55.03
2022-12-18T10:02:26.050Z,53.83
2022-12-18T10:05:06.458Z,55.95
2022-12-18T10:07:55.266Z,56.65
2022-12-18T10:10:39.020Z,50.05
2022-12-18T10:13:16.564Z,47.55
2022-12-18T10:15:59.453Z,56.25
2022-12-18T10:18:42.048Z,57.95
2022-12-18T10:21:18.720Z,48.53
2022-12-18T10:23:55.377Z,52.85
2022-12-18T10:26:25.206Z,52.08
2022-12-18T10:28:53.131Z,58.67
2022-12-18T10:31:24.736Z,50.90
2022-12-18T10:33:57.105Z,63.95
2022-12-18T10:36:25.512Z,56.10
2022-12-18T10:38:52.757Z,51.67
2022-12-18T10:41:29.565Z,49.15
2022-12-18T10:44:18.378Z,44.85
2022-12-18T10:46:47.770Z,49.92
2022-12-18T10:52:04.589Z,52.05
2022-12-18T10:54:33.616Z,47.88
2022-12-18T10:57:35.206Z,46.20
2022-12-18T11:00:22.340Z,52.78
2022-12-18T11:02:52.512Z,53.80
2022-12-18T11:05:28.636Z,43.22
2022-12-18T11:07:59.541Z,67.05
2022-12-18T11:10:31.675Z,72.65
2022-12-18T11:13:13.662Z,65.13
2022-12-18T11:15:42.568Z,44.63
2022-12-18T11:18:19.990Z,44.55
2022-12-18T11:21:01.397Z,52.10
2022-12-18T11:23:29.039Z,44.83
2022-12-18T11:25:59.139Z,54.92
2022-12-18T11:28:35.910Z,48.03
2022-12-18T11:31:23.055Z,48.45
2022-12-18T11:36:49.580Z,46.85
2022-12-18T11:39:24.983Z,46.22
2022-12-18T11:42:12.775Z,36.15
2022-12-18T11:44:47.684Z,37.05
2022-12-18T11:47:26.755Z,43.97
2022-12-18T11:49:58.896Z,37.17
2022-12-18T11:52:29.675Z,40.13
2022-12-18T11:55:02.465Z,41.75
2022-12-18T11:57:42.334Z,41.60
2022-12-18T12:00:18.629Z,39.55
2022-12-18T12:03:19.953Z,32.42
2022-12-18T12:06:04.439Z,40.53
2022-12-18T12:09:04.920Z,54.33
2022-12-18T12:11:57.036Z,53.53
2022-12-18T12:14:37.896Z,33.83
2022-12-18T12:17:17.838Z,36.47
2022-12-18T12:19:53.266Z,41.78
2022-12-18T12:22:31.055Z,35.15
2022-12-18T12:25:15.620Z,44.00
2022-12-18T12:27:56.218Z,37.92
2022-12-18T12:30:32.124Z,32.63
2022-12-18T12:33:24.208Z,24.90
2022-12-18T12:36:00.186Z,31.25
2022-12-18T12:38:38.165Z,33.85
2022-12-18T12:41:30.739Z,34.53
2022-12-18T12:44:01.252Z,31.58
2022-12-18T12:46:30.616Z,27.20
2022-12-18T12:49:05.328Z,26.17
2022-12-18T12:51:35.605Z,28.98
2022-12-18T12:54:07.200Z,29.00
2022-12-18T12:56:46.727Z,27.60
2022-12-18T12:59:26.885Z,32.30
2022-12-18T13:01:59.278Z,29.10
2022-12-18T13:04:52.681Z,25.42
2022-12-18T13:07:27.967Z,26.63
2022-12-18T13:10:28.709Z,27.70
2022-12-18T13:12:57.371Z,26.48
2022-12-18T13:15:39.755Z,26.77
2022-12-18T13:18:20.979Z,21.65
2022-12-18T13:20:55.168Z,24.23
2022-12-18T13:23:43.711Z,29.23
2022-12-18T13:26:33.971Z,28.10
2022-12-18T13:29:05.049Z,46.97
2022-12-18T13:32:08.823Z,35.00
2022-12-18T13:34:37.388Z,24.92
2022-12-18T13:37:44.112Z,30.08
2022-12-18T13:40:56.478Z,22.38
2022-12-18T13:43:41.356Z,33.00
2022-12-18T13:46:24.056Z,25.42
2022-12-18T13:48:56.076Z,24.38
2022-12-18T13:51:23.942Z,63.05
2022-12-18T13:53:56.225Z,48.70
2022-12-18T13:56:28.579Z,32.47
2022-12-18T13:59:23.067Z,38.17
2022-12-18T14:01:56.290Z,54.33
2022-12-18T14:04:30.688Z,54.40
2022-12-18T14:07:03.859Z,36.08
2022-12-18T14:09:37.231Z,26.25
2022-12-18T14:12:25.785Z,22.23
2022-12-18T14:14:55.146Z,21.20
2022-12-18T14:19:51.695Z,23.48
2022-12-18T14:22:21.001Z,21.48
2022-12-18T14:25:09.591Z,19.30
2022-12-18T14:27:39.032Z,26.20
2022-12-18T14:30:24.952Z,24.40
2022-12-18T14:33:01.164Z,26.50
2022-12-18T14:35:28.556Z,22.15
2022-12-18T14:38:20.533Z,26.02
2022-12-18T14:40:58.938Z,28.70
2022-12-18T14:43:27.108Z,36.30
2022-12-18T14:46:00.808Z,33.00
2022-12-18T14:48:37.442Z,34.47
2022-12-18T14:51:07.451Z,33.38
2022-12-18T14:53:40.509Z,42.63
2022-12-18T14:56:19.748Z,46.60
2022-12-18T14:58:49.701Z,51.15
2022-12-18T15:01:28.546Z,55.90
2022-12-18T15:03:57.313Z,80.50
2022-12-18T15:06:33.630Z,62.22
2022-12-18T15:09:22.809Z,53.67
2022-12-18T15:11:57.601Z,42.97
2022-12-18T15:14:35.792Z,56.03
2022-12-18T15:17:06.971Z,58.72
2022-12-18T15:19:39.535Z,50.85
2022-12-18T15:22:21.426Z,53.83
2022-12-18T15:24:52.579Z,52.13
2022-12-18T15:27:25.508Z,44.55
2022-12-18T15:30:19.491Z,43.60
2022-12-18T15:32:49.873Z,50.33
2022-12-18T15:35:20.376Z,55.45
2022-12-18T15:37:47.933Z,50.92
2022-12-18T15:40:16.182Z,50.17
2022-12-18T15:43:05.627Z,40.45
2022-12-18T15:45:37.095Z,53.50
2022-12-18T15:48:15.687Z,48.97
2022-12-18T15:50:54.612Z,45.20
2022-12-18T15:56:18.622Z,38.88
2022-12-18T15:58:48.505Z,38.03
2022-12-18T16:01:27.239Z,40.67
2022-12-18T16:04:00.181Z,47.25
2022-12-18T16:06:30.492Z,43.88
2022-12-18T16:09:03.771Z,43.20
2022-12-18T16:11:44.002Z,48.40
2022-12-18T16:14:19.340Z,43.35
2022-12-18T16:16:47.917Z,44.70
2022-12-18T16:19:22.126Z,44.22
2022-12-18T16:21:56.907Z,45.60
2022-12-18T16:24:26.828Z,43.97
2022-12-18T16:26:54.585Z,41.58
2022-12-18T16:29:30.110Z,48.17
2022-12-18T16:31:58.119Z,43.17
2022-12-18T16:34:32.139Z,43.53
2022-12-18T16:37:05.775Z,38.83
2022-12-18T16:39:37.416Z,54.28
2022-12-18T16:42:11.361Z,45.10
2022-12-18T16:44:43.167Z,41.78
2022-12-18T16:49:43.786Z,38.85
2022-12-18T16:52:10.711Z,39.30
2022-12-18T16:54:40.542Z,38.45
2022-12-18T16:57:07.657Z,37.67
2022-12-18T16:59:34.753Z,38.15
2022-12-18T17:02:05.711Z,37.58
2022-12-18T17:04:34.199Z,34.85
2022-12-18T17:07:01.857Z,34.67
2022-12-18T17:09:29.749Z,36.92
2022-12-18T17:11:56.737Z,39.60
2022-12-18T17:14:25.703Z,36.85
2022-12-18T17:17:19.704Z,39.65
2022-12-18T17:19:42.202Z,31.63
2022-12-18T17:22:09.550Z,36.13
2022-12-18T17:24:37.440Z,40.45
2022-12-18T17:27:04.951Z,39.97
2022-12-18T17:29:36.411Z,41.92
2022-12-18T17:32:05.845Z,37.45
2022-12-18T17:34:44.217Z,34.35
2022-12-18T17:37:14.406Z,37.33
2022-12-18T17:39:46.451Z,35.42
2022-12-18T17:42:15.220Z,35.20
2022-12-18T17:44:43.437Z,40.30
2022-12-18T17:47:12.156Z,45.85
2022-12-18T17:52:10.937Z,37.00
2022-12-18T17:57:28.988Z,43.70
2022-12-18T17:59:56.303Z,48.15
2022-12-18T18:02:23.289Z,40.55
2022-12-18T18:04:52.995Z,42.50
2022-12-18T18:07:23.969Z,45.45
2022-12-18T18:09:55.392Z,50.00
2022-12-18T18:12:40.906Z,47.40
2022-12-18T18:15:10.333Z,46.22
2022-12-18T18:17:37.909Z,50.92
2022-12-18T18:20:06.235Z,47.70
2022-12-18T18:22:34.757Z,44.08
2022-12-18T18:25:03.563Z,52.22
2022-12-18T18:27:36.895Z,49.22
2022-12-18T18:30:07.790Z,58.00
2022-12-18T18:32:39.718Z,73.10
2022-12-18T18:35:12.550Z,84.00
2022-12-18T18:37:53.113Z,41.95
2022-12-18T18:42:51.593Z,53.60
2022-12-18T18:45:23.666Z,59.58
2022-12-18T18:47:50.589Z,72.25
2022-12-18T18:50:18.680Z,59.47
2022-12-18T18:52:53.165Z,78.70
2022-12-18T18:55:25.440Z,69.85
2022-12-18T18:57:52.845Z,85.85
2022-12-18T19:00:22.071Z,81.88
2022-12-18T19:02:57.697Z,81.93
2022-12-18T19:05:31.430Z,72.32
2022-12-18T19:07:59.744Z,64.45
2022-12-18T19:10:26.822Z,57.35
2022-12-18T19:13:15.711Z,62.83
2022-12-18T19:15:47.155Z,60.17
2022-12-18T19:18:17.432Z,53.92
2022-12-18T19:20:44.884Z,50.78
2022-12-18T19:23:22.439Z,56.40
2022-12-18T19:25:59.517Z,51.00
2022-12-18T19:28:40.839Z,43.33
2022-12-18T19:31:10.812Z,61.60
2022-12-18T19:33:43.673Z,63.90
2022-12-18T19:36:14.232Z,62.38
2022-12-18T19:38:45.435Z,65.55
2022-12-18T19:41:14.707Z,52.95
2022-12-18T19:43:42.422Z,56.60
2022-12-18T19:46:12.156Z,41.17
2022-12-18T19:48:39.345Z,51.38
2022-12-18T19:51:08.787Z,52.47
2022-12-18T19:53:59.943Z,50.70
2022-12-18T19:56:30.685Z,54.47
2022-12-18T20:01:27.356Z,54.63
2022-12-18T20:03:55.955Z,47.20
2022-12-18T20:06:27.045Z,51.05
2022-12-18T20:09:00.415Z,49.30
2022-12-18T20:11:31.512Z,48.00
2022-12-18T20:14:01.985Z,54.63
2022-12-18T20:16:29.728Z,57.10
2022-12-18T20:18:57.941Z,52.03
2022-12-18T20:21:28.295Z,54.83
2022-12-18T20:24:00.218Z,55.15
2022-12-18T20:26:27.734Z,59.88
2022-12-18T20:28:58.008Z,63.30
2022-12-18T20:31:27.263Z,53.78
2022-12-18T20:34:00.210Z,51.20
2022-12-18T20:36:29.524Z,51.60
2022-12-18T20:39:02.793Z,52.70
2022-12-18T20:41:37.859Z,55.80
2022-12-18T20:44:08.520Z,53.78
2022-12-18T20:46:49.931Z,53.97
2022-12-18T20:49:16.929Z,55.22
2022-12-18T20:51:44.153Z,64.78
2022-12-18T20:54:12.536Z,60.28
2022-12-18T20:56:39.780Z,60.78
2022-12-18T20:59:07.277Z,64.55
2022-12-18T21:01:34.745Z,56.28
2022-12-18T21:04:03.208Z,56.53
2022-12-18T21:06:33.164Z,57.08
2022-12-18T21:09:02.577Z,53.58
2022-12-18T21:11:54.596Z,55.67
2022-12-18T21:14:24.799Z,51.50
2022-12-18T21:16:56.081Z,65.50
2022-12-18T21:19:25.571Z,65.25
2022-12-18T21:21:53.665Z,68.05
2022-12-18T21:24:20.573Z,58.00
2022-12-18T21:26:49.643Z,61.47
2022-12-18T21:29:19.467Z,58.10
2022-12-18T21:31:53.215Z,58.42
2022-12-18T21:34:22.653Z,64.20
2022-12-18T21:36:49.919Z,59.25
2022-12-18T21:39:20.184Z,63.80
2022-12-18T21:42:09.978Z,47.15
2022-12-18T21:44:41.727Z,55.88
2022-12-18T21:47:22.290Z,58.25
2022-12-18T21:49:50.842Z,49.65
2022-12-18T21:52:18.109Z,54.60
2022-12-18T21:54:47.831Z,53.80
2022-12-18T21:57:19.693Z,52.97
2022-12-18T21:59:46.711Z,47.47
2022-12-18T22:02:21.198Z,48.40
2022-12-18T22:04:48.848Z,58.00
2022-12-18T22:07:19.172Z,48.38
2022-12-18T22:09:51.618Z,57.13
2022-12-18T22:12:35.448Z,52.88
2022-12-18T22:15:04.446Z,52.95
2022-12-18T22:17:31.883Z,55.88
2022-12-18T22:19:58.756Z,45.50
2022-12-18T22:22:25.950Z,55.28
2022-12-18T22:24:52.894Z,55.30
2022-12-18T22:27:27.527Z,58.13
2022-12-18T22:30:06.529Z,52.95
2022-12-18T22:32:35.151Z,63.88
2022-12-18T22:35:09.156Z,55.83
2022-12-18T22:37:37.108Z,55.95
2022-12-18T22:40:05.282Z,58.20
2022-12-18T22:42:34.772Z,58.55
2022-12-18T22:45:01.803Z,61.60
2022-12-18T22:47:31.176Z,59.22
2022-12-18T22:49:58.178Z,54.55
2022-12-18T22:52:25.662Z,56.85
2022-12-18T22:54:54.180Z,56.35
2022-12-18T22:57:22.685Z,47.28
2022-12-18T22:59:51.394Z,59.53
2022-12-18T23:02:22.321Z,55.90
2022-12-18T23:04:49.342Z,56.53
2022-12-18T23:07:16.694Z,53.80
2022-12-18T23:09:44.246Z,60.90
2022-12-18T23:14:43.430Z,46.80
2022-12-18T23:17:13.529Z,56.40
2022-12-18T23:19:45.452Z,46.60
2022-12-18T23:22:19.828Z,50.70
2022-12-18T23:24:47.069Z,46.53
2022-12-18T23:27:14.370Z,47.20
2022-12-18T23:29:41.297Z,50.28
2022-12-18T23:32:08.637Z,45.33
2022-12-18T23:34:37.395Z,53.75
2022-12-18T23:37:07.165Z,49.60
2022-12-18T23:39:37.231Z,54.30
2022-12-18T23:42:09.871Z,53.75
2022-12-18T23:44:43.456Z,51.42
2022-12-18T23:47:12.149Z,50.90
2022-12-18T23:49:40.542Z,50.33
2022-12-18T23:52:10.729Z,50.70
2022-12-18T23:54:39.768Z,51.15
2022-12-18T23:57:07.002Z,49.47
2022-12-18T23:59:38.840Z,47.28
